KMFI

Details ICAO KMFI (MFI)
Name Marshfield Muni
Region United States
Timezone America/Chicago (UTC-5.0)
Plans Departing 1
Arriving 6
Stats Elevation 1,277 ft / 389 m (AMSL)
Location 44.636671° -90.189052°
Runways 2
Magnetic Variation 2.318° W
Sunrise 2018-05-27 10:23:13 UTC / 2018-05-27 05:23:13 Local
Sunset 2018-05-28 01:35:33 UTC / 2018-05-27 20:35:33 Local
Advertisement - Login to hide

Runways

ID Width Length Bearing (true) Bearing (mag) Surface Threshold Offset Overrun Length
04 100 ft / 30 m 3,597 ft / 1,096 m 46.91° 49.23° Asphalt 0 ft / 0 m 0 ft / 0 m
16 100 ft / 30 m 5,003 ft / 1,525 m 158.64° 160.96° Asphalt 0 ft / 0 m 0 ft / 0 m
22 100 ft / 30 m 3,597 ft / 1,096 m 226.92° 229.24° Asphalt 0 ft / 0 m 0 ft / 0 m
34 100 ft / 30 m 5,003 ft / 1,525 m 338.64° 340.96° Asphalt 0 ft / 0 m 0 ft / 0 m

Map

Weather


0- 5 10 15 20 25 30 35+ Temperature / ° C

Clouds and Precipitation
Forecast for 2018-05-27 18:00 UTC. Updated an hour ago

Ground ~20,000 ft ~40,000 ft Winds

METAR

KMFI 271754Z AUTO 28010KT 10SM CLR 32/13 A2989 RMK AO2 SLP113 T03220133 10328 20206 53007 TSNO

TAF

Not found

Frequencies

Recorded 121.57 MHz ASOS
Unicom 123.00 MHz CTAF/UNICOM
Warning: Do not use this data for real-world aviation or navigation. No guarantee of current accuracy is given.